createdAt,value
2023-02-08T00:01:15.236Z,-2.48
2023-02-08T00:03:42.271Z,-2.29
2023-02-08T00:06:10.256Z,-2.30
2023-02-08T00:08:38.254Z,-2.42
2023-02-08T00:11:06.426Z,-2.36
2023-02-08T00:13:34.493Z,-2.49
2023-02-08T00:16:01.489Z,-2.58
2023-02-08T00:18:28.406Z,-2.26
2023-02-08T00:20:57.491Z,-2.28
2023-02-08T00:23:25.597Z,-2.30
2023-02-08T00:25:52.425Z,-2.36
2023-02-08T00:28:20.097Z,-2.29
2023-02-08T00:30:47.125Z,-2.26
2023-02-08T00:33:14.146Z,-2.45
2023-02-08T00:35:42.379Z,-2.44
2023-02-08T00:38:09.318Z,-2.43
2023-02-08T00:40:36.329Z,-2.53
2023-02-08T00:43:03.299Z,-2.53
2023-02-08T00:45:30.218Z,-2.55
2023-02-08T00:47:57.081Z,-2.78
2023-02-08T00:50:24.064Z,-2.70
2023-02-08T00:52:51.099Z,-2.65
2023-02-08T00:55:18.069Z,-2.57
2023-02-08T00:57:44.952Z,-2.78
2023-02-08T01:00:12.453Z,-2.85
2023-02-08T01:02:40.112Z,-2.62
2023-02-08T01:05:07.655Z,-2.57
2023-02-08T01:07:37.634Z,-2.45
2023-02-08T01:10:07.022Z,-2.36
2023-02-08T01:12:33.938Z,-2.36
2023-02-08T01:15:00.901Z,-2.37
2023-02-08T01:17:27.841Z,-2.17
2023-02-08T01:19:54.785Z,-2.15
2023-02-08T01:22:21.611Z,-2.19
2023-02-08T01:24:48.456Z,-2.28
2023-02-08T01:27:15.349Z,-2.27
2023-02-08T01:29:42.257Z,-2.36
2023-02-08T01:32:09.129Z,-2.20
2023-02-08T01:34:36.091Z,-2.08
2023-02-08T01:37:03.015Z,-2.22
2023-02-08T01:39:29.895Z,-2.17
2023-02-08T01:41:56.822Z,-2.35
2023-02-08T01:45:01.334Z,-2.35
2023-02-08T01:47:28.428Z,-2.27
2023-02-08T01:49:56.305Z,-2.26
2023-02-08T01:52:28.971Z,-2.31
2023-02-08T01:55:03.001Z,-2.28
2023-02-08T01:57:30.195Z,-2.30
2023-02-08T02:00:05.218Z,-2.49
2023-02-08T02:02:33.837Z,-2.44
2023-02-08T02:05:01.828Z,-2.31
2023-02-08T02:07:31.218Z,-2.28
2023-02-08T02:10:29.466Z,-2.43
2023-02-08T02:13:02.563Z,-2.47
2023-02-08T02:15:29.702Z,-2.38
2023-02-08T02:17:56.937Z,-2.26
2023-02-08T02:20:48.105Z,-2.77
2023-02-08T02:23:36.308Z,-2.65
2023-02-08T02:26:29.765Z,-2.60
2023-02-08T02:29:20.320Z,-2.55
2023-02-08T02:31:59.255Z,-2.57
2023-02-08T02:34:46.928Z,-2.45
2023-02-08T02:37:41.851Z,-2.43
2023-02-08T02:40:21.659Z,-2.40
2023-02-08T02:43:24.267Z,-2.37
2023-02-08T02:46:07.332Z,-2.40
2023-02-08T02:48:52.813Z,-2.17
2023-02-08T02:51:33.150Z,-2.38
2023-02-08T02:54:09.877Z,-2.58
2023-02-08T02:56:45.309Z,-2.35
2023-02-08T02:59:17.222Z,-2.13
2023-02-08T03:01:45.551Z,-2.08
2023-02-08T03:04:35.617Z,-1.89
2023-02-08T03:07:20.760Z,-2.00
2023-02-08T03:10:10.562Z,-2.25
2023-02-08T03:12:54.027Z,-2.23
2023-02-08T03:15:44.280Z,-2.15
2023-02-08T03:18:46.383Z,-2.42
2023-02-08T03:21:29.836Z,-2.21
2023-02-08T03:24:19.800Z,-1.90
2023-02-08T03:27:06.943Z,-1.86
2023-02-08T03:29:41.965Z,-1.74
2023-02-08T03:32:17.858Z,-1.97
2023-02-08T03:34:58.671Z,-1.89
2023-02-08T03:37:34.235Z,-2.06
2023-02-08T03:40:09.452Z,-1.92
2023-02-08T03:42:47.460Z,-1.98
2023-02-08T03:45:24.280Z,-1.57
2023-02-08T03:47:53.418Z,-2.30
2023-02-08T03:50:22.865Z,-2.02
2023-02-08T03:52:52.493Z,-2.62
2023-02-08T03:55:21.978Z,-2.33
2023-02-08T03:57:55.692Z,-1.81
2023-02-08T04:00:23.815Z,-1.85
2023-02-08T04:03:05.932Z,-1.75
2023-02-08T04:05:33.554Z,-1.56
2023-02-08T04:08:00.881Z,-1.42
2023-02-08T04:10:28.014Z,-1.37
2023-02-08T04:12:54.939Z,-1.39
2023-02-08T04:15:22.218Z,-2.60
2023-02-08T04:17:49.198Z,-1.72
2023-02-08T04:20:16.115Z,-1.40
2023-02-08T04:22:43.092Z,-1.72
2023-02-08T04:25:11.022Z,-1.95
2023-02-08T04:27:38.382Z,-1.53
2023-02-08T04:30:05.938Z,-2.03
2023-02-08T04:32:32.820Z,-1.61
2023-02-08T04:35:00.056Z,-1.68
2023-02-08T04:37:27.024Z,-1.49
2023-02-08T04:39:53.896Z,-1.63
2023-02-08T04:42:20.786Z,-1.12
2023-02-08T04:44:47.846Z,-1.41
2023-02-08T04:47:14.751Z,-1.02
2023-02-08T04:49:41.697Z,-1.13
2023-02-08T04:52:08.571Z,-1.16
2023-02-08T04:54:35.514Z,-1.45
2023-02-08T04:57:02.464Z,-1.30
2023-02-08T04:59:29.552Z,-1.49
2023-02-08T05:01:56.533Z,-1.72
2023-02-08T05:04:23.511Z,-1.72
2023-02-08T05:06:50.376Z,-1.51
2023-02-08T05:09:17.275Z,-1.28
2023-02-08T05:11:45.051Z,-1.75
2023-02-08T05:14:11.900Z,-1.47
2023-02-08T05:16:38.853Z,-1.55
2023-02-08T05:19:05.812Z,-1.26
2023-02-08T05:21:32.712Z,-1.50
2023-02-08T05:23:59.548Z,-1.28
2023-02-08T05:26:26.418Z,-1.16
2023-02-08T05:28:53.344Z,-1.51
2023-02-08T05:31:23.245Z,-1.55
2023-02-08T05:33:51.662Z,-1.54
2023-02-08T05:36:19.896Z,-1.46
2023-02-08T05:38:46.845Z,-1.47
2023-02-08T05:41:13.790Z,-1.46
2023-02-08T05:43:40.695Z,-1.42
2023-02-08T05:46:08.259Z,-1.30
2023-02-08T05:48:35.772Z,-1.26
2023-02-08T05:51:02.785Z,-1.16
2023-02-08T05:53:30.161Z,-1.13
2023-02-08T05:55:58.314Z,-1.48
2023-02-08T05:58:26.142Z,-1.57
2023-02-08T06:00:54.895Z,-1.39
2023-02-08T06:03:21.944Z,-1.23
2023-02-08T06:05:49.068Z,-1.45
2023-02-08T06:08:16.138Z,-2.10
2023-02-08T06:10:43.430Z,-1.65
2023-02-08T06:13:10.398Z,-1.53
2023-02-08T06:15:37.443Z,-1.45
2023-02-08T06:18:04.517Z,-1.52
2023-02-08T06:20:31.465Z,-1.85
2023-02-08T06:22:58.577Z,-2.11
2023-02-08T06:25:25.702Z,-1.67
2023-02-08T06:27:52.851Z,-1.58
2023-02-08T06:30:19.789Z,-1.61
2023-02-08T06:32:47.091Z,-1.62
2023-02-08T06:35:14.389Z,-2.12
2023-02-08T06:37:41.837Z,-2.33
2023-02-08T06:40:11.062Z,-1.71
2023-02-08T07:38:55.405Z,-1.74
2023-02-08T08:16:54.447Z,-1.21
2023-02-08T08:31:03.524Z,-0.71
2023-02-08T08:33:36.616Z,-0.30
2023-02-08T08:36:04.613Z,-0.13
2023-02-08T08:39:48.021Z,-0.04
2023-02-08T08:59:39.094Z,-0.05
2023-02-08T09:02:06.097Z,-0.33
2023-02-08T09:04:33.112Z,0.30
2023-02-08T09:07:00.149Z,0.48
2023-02-08T09:09:27.096Z,0.55
2023-02-08T09:11:54.042Z,0.78
2023-02-08T09:14:21.206Z,0.77
2023-02-08T09:16:48.512Z,0.89
2023-02-08T09:19:16.420Z,1.08
2023-02-08T09:21:43.973Z,1.18
2023-02-08T09:24:11.087Z,1.18
2023-02-08T09:26:38.935Z,0.99
2023-02-08T09:29:06.983Z,0.88
2023-02-08T09:31:38.076Z,0.73
2023-02-08T09:34:06.842Z,0.90
2023-02-08T09:36:36.516Z,1.40
2023-02-08T09:39:15.776Z,1.39
2023-02-08T09:42:17.607Z,1.66
2023-02-08T09:45:03.159Z,1.59
2023-02-08T09:47:37.321Z,1.93
2023-02-08T09:50:29.849Z,2.20
2023-02-08T09:53:24.157Z,2.23
2023-02-08T09:56:01.730Z,2.49
2023-02-08T09:58:42.227Z,2.14
2023-02-08T10:01:36.576Z,2.64
2023-02-08T10:04:17.426Z,2.92
2023-02-08T10:06:55.190Z,3.25
2023-02-08T10:09:32.604Z,3.84
2023-02-08T10:12:29.461Z,4.16
2023-02-08T10:17:10.561Z,4.44
2023-02-08T10:19:13.572Z,5.13
2023-02-08T10:22:12.485Z,5.60
2023-02-08T10:25:12.193Z,5.99
2023-02-08T10:28:06.194Z,6.29
2023-02-08T10:30:36.085Z,6.56
2023-02-08T10:33:43.109Z,7.21
2023-02-08T10:36:43.650Z,7.36
2023-02-08T10:39:21.676Z,7.41
2023-02-08T10:41:51.994Z,7.65
2023-02-08T10:44:31.363Z,7.71
2023-02-08T10:47:10.493Z,7.55
2023-02-08T10:49:56.005Z,8.08
2023-02-08T10:52:25.034Z,7.95
2023-02-08T10:54:52.860Z,8.14
2023-02-08T10:57:28.312Z,6.39
2023-02-08T11:00:03.628Z,6.72
2023-02-08T11:02:42.606Z,6.96
2023-02-08T11:05:13.522Z,7.35
2023-02-08T11:07:44.489Z,7.04
2023-02-08T11:10:22.775Z,6.52
2023-02-08T11:13:04.146Z,6.90
2023-02-08T11:15:40.378Z,5.09
2023-02-08T11:18:20.752Z,5.95
2023-02-08T11:20:54.314Z,6.68
2023-02-08T11:23:31.806Z,5.98
2023-02-08T11:26:17.567Z,5.11
2023-02-08T11:28:45.461Z,4.71
2023-02-08T11:31:20.857Z,4.05
2023-02-08T11:34:09.806Z,4.74
2023-02-08T11:36:43.379Z,4.13
2023-02-08T11:39:41.064Z,4.43
2023-02-08T11:42:18.238Z,4.44
2023-02-08T11:44:46.116Z,4.30
2023-02-08T11:47:20.452Z,4.98
2023-02-08T11:50:34.465Z,4.40
2023-02-08T11:53:21.035Z,4.15
2023-02-08T11:56:08.082Z,5.10
2023-02-08T11:58:35.308Z,5.04
2023-02-08T12:01:07.384Z,5.09
2023-02-08T12:03:40.423Z,5.16
2023-02-08T12:06:40.777Z,5.06
2023-02-08T12:09:33.845Z,5.13
2023-02-08T12:12:41.692Z,5.01
2023-02-08T12:15:57.917Z,5.31
2023-02-08T12:18:37.236Z,5.09
2023-02-08T12:21:22.296Z,5.22
2023-02-08T12:23:53.617Z,5.48
2023-02-08T12:26:59.823Z,5.41
2023-02-08T12:29:47.655Z,5.60
2023-02-08T12:32:30.141Z,5.58
2023-02-08T12:35:06.658Z,5.22
2023-02-08T12:38:18.406Z,5.26
2023-02-08T12:40:55.665Z,5.49
2023-02-08T12:43:41.284Z,5.76
2023-02-08T12:46:37.619Z,5.98
2023-02-08T12:49:14.067Z,5.83
2023-02-08T12:52:14.834Z,6.28
2023-02-08T12:54:54.728Z,5.83
2023-02-08T12:57:23.456Z,6.44
2023-02-08T12:59:59.204Z,6.31
2023-02-08T13:02:35.502Z,6.67
2023-02-08T13:05:09.705Z,6.70
2023-02-08T13:07:42.719Z,5.81
2023-02-08T13:10:28.119Z,6.35
2023-02-08T13:13:14.391Z,6.10
2023-02-08T13:16:15.794Z,6.04
2023-02-08T13:18:48.206Z,5.72
2023-02-08T13:21:26.703Z,6.02
2023-02-08T13:23:53.912Z,5.59
2023-02-08T13:26:38.160Z,4.78
2023-02-08T13:29:05.575Z,5.25
2023-02-08T13:31:41.664Z,4.62
2023-02-08T13:34:36.528Z,4.96
2023-02-08T13:37:16.565Z,4.87
2023-02-08T13:39:59.529Z,5.20
2023-02-08T13:42:35.315Z,5.27
2023-02-08T13:45:04.852Z,5.19
2023-02-08T13:47:43.437Z,5.54
2023-02-08T13:50:52.612Z,5.45
2023-02-08T13:53:39.896Z,5.65
2023-02-08T13:56:12.025Z,5.20
2023-02-08T13:58:48.408Z,5.73
2023-02-08T14:01:22.863Z,5.19
2023-02-08T14:04:08.895Z,4.47
2023-02-08T14:06:48.220Z,5.24
2023-02-08T14:09:34.200Z,5.13
2023-02-08T14:12:05.359Z,5.01
2023-02-08T14:14:39.384Z,5.52
2023-02-08T14:17:23.409Z,4.92
2023-02-08T14:20:00.335Z,5.60
2023-02-08T14:22:33.908Z,5.90
2023-02-08T14:25:18.810Z,4.77
2023-02-08T14:28:03.198Z,5.66
2023-02-08T14:30:39.427Z,5.82
2023-02-08T14:33:09.196Z,5.73
2023-02-08T14:35:39.955Z,6.48
2023-02-08T14:38:19.547Z,6.38
2023-02-08T14:40:59.329Z,6.06
2023-02-08T14:43:40.640Z,6.37
2023-02-08T14:46:44.763Z,6.56
2023-02-08T14:49:26.436Z,6.32
2023-02-08T14:52:43.426Z,5.92
2023-02-08T14:55:20.552Z,5.58
2023-02-08T14:57:53.203Z,6.12
2023-02-08T15:04:02.075Z,6.22
2023-02-08T15:06:40.677Z,5.19
2023-02-08T15:09:18.342Z,4.74
2023-02-08T15:12:23.343Z,4.62
2023-02-08T15:14:52.945Z,5.13
2023-02-08T15:17:25.930Z,4.04
2023-02-08T15:19:56.299Z,3.98
2023-02-08T15:22:26.443Z,4.46
2023-02-08T15:25:16.730Z,4.44
2023-02-08T15:27:49.998Z,3.74
2023-02-08T15:30:36.784Z,3.84
2023-02-08T15:33:14.963Z,3.69
2023-02-08T15:35:46.627Z,3.89
2023-02-08T15:38:21.010Z,3.36
2023-02-08T15:41:07.065Z,3.52
2023-02-08T15:43:35.719Z,3.56
2023-02-08T15:46:18.262Z,3.79
2023-02-08T15:48:46.927Z,3.93
2023-02-08T15:51:16.352Z,3.59
2023-02-08T15:53:45.687Z,4.09
2023-02-08T15:56:34.274Z,3.55
2023-02-08T15:59:07.177Z,3.61
2023-02-08T16:01:34.630Z,3.48
2023-02-08T16:04:14.964Z,2.83
2023-02-08T16:06:54.177Z,3.05
2023-02-08T16:09:27.382Z,3.22
2023-02-08T16:11:58.080Z,3.58
2023-02-08T16:14:29.369Z,3.50
2023-02-08T16:16:58.453Z,3.40
2023-02-08T16:19:37.383Z,3.70
2023-02-08T16:22:27.491Z,3.78
2023-02-08T16:24:56.145Z,3.92
2023-02-08T16:27:30.061Z,4.04
2023-02-08T16:29:57.776Z,4.12
2023-02-08T16:32:29.410Z,4.16
2023-02-08T16:34:56.742Z,4.10
2023-02-08T16:37:33.596Z,4.12
2023-02-08T16:40:02.907Z,4.18
2023-02-08T16:42:39.008Z,4.20
2023-02-08T16:45:12.924Z,4.21
2023-02-08T16:47:58.439Z,4.16
2023-02-08T16:50:28.621Z,4.14
2023-02-08T16:53:04.028Z,4.11
2023-02-08T16:55:33.843Z,3.96
2023-02-08T16:58:01.204Z,4.13
2023-02-08T17:00:37.886Z,3.89
2023-02-08T17:03:04.866Z,3.94
2023-02-08T17:05:37.345Z,3.82
2023-02-08T17:08:10.133Z,3.76
2023-02-08T17:10:37.477Z,3.82
2023-02-08T17:13:20.850Z,3.85
2023-02-08T17:15:51.236Z,3.72
2023-02-08T17:18:23.829Z,3.71
2023-02-08T17:20:58.266Z,3.70
2023-02-08T17:23:31.604Z,3.55
2023-02-08T17:25:58.885Z,3.53
2023-02-08T17:28:27.604Z,3.37
2023-02-08T17:31:00.006Z,3.36
2023-02-08T17:33:29.648Z,3.25
2023-02-08T17:35:57.449Z,3.20
2023-02-08T17:38:24.388Z,3.19
2023-02-08T17:40:51.315Z,3.13
2023-02-08T17:43:19.217Z,2.91
2023-02-08T17:45:46.536Z,3.03
2023-02-08T17:48:13.761Z,2.97
2023-02-08T17:50:48.141Z,2.87
2023-02-08T17:53:15.733Z,2.77
2023-02-08T17:55:44.115Z,2.78
2023-02-08T17:58:11.720Z,2.70
2023-02-08T18:00:38.906Z,2.59
2023-02-08T18:03:05.943Z,2.32
2023-02-08T18:05:32.961Z,1.89
2023-02-08T18:08:00.186Z,2.36
2023-02-08T18:10:28.509Z,2.20
2023-02-08T18:12:56.044Z,2.29
2023-02-08T18:15:24.284Z,2.18
2023-02-08T18:17:52.885Z,2.17
2023-02-08T18:20:19.896Z,2.08
2023-02-08T18:22:46.958Z,2.09
2023-02-08T18:25:14.591Z,1.91
2023-02-08T18:27:41.654Z,1.86
2023-02-08T18:30:09.786Z,1.98
2023-02-08T18:32:36.773Z,1.93
2023-02-08T18:35:04.647Z,1.65
2023-02-08T18:37:32.420Z,1.64
2023-02-08T18:40:00.293Z,1.49
2023-02-08T18:42:27.489Z,1.50
2023-02-08T18:44:54.572Z,1.41
2023-02-08T18:47:21.742Z,1.50
2023-02-08T18:49:53.514Z,1.38
2023-02-08T18:52:20.456Z,1.42
2023-02-08T18:54:47.383Z,1.36
2023-02-08T18:57:14.466Z,1.40
2023-02-08T18:59:41.506Z,1.43
2023-02-08T19:02:11.292Z,1.37
2023-02-08T19:04:39.156Z,1.33
2023-02-08T19:07:07.322Z,1.27
2023-02-08T19:09:39.154Z,1.22
2023-02-08T19:12:07.819Z,1.24
2023-02-08T19:14:34.868Z,1.20
2023-02-08T19:17:02.570Z,1.09
2023-02-08T19:19:29.727Z,1.03
2023-02-08T19:21:56.753Z,1.03
2023-02-08T19:24:23.664Z,1.06
2023-02-08T19:26:50.943Z,1.07
2023-02-08T19:29:22.027Z,0.97
2023-02-08T19:31:50.434Z,0.94
2023-02-08T19:34:18.855Z,0.93
2023-02-08T19:36:49.826Z,0.75
2023-02-08T19:39:19.916Z,0.88
2023-02-08T19:41:48.361Z,0.80
2023-02-08T19:44:18.431Z,0.80
2023-02-08T19:46:53.852Z,0.71
2023-02-08T19:49:23.557Z,0.60
2023-02-08T19:51:52.141Z,0.62
2023-02-08T19:54:20.681Z,0.56
2023-02-08T19:56:50.524Z,0.58
2023-02-08T19:59:25.943Z,0.51
2023-02-08T20:01:53.942Z,0.37
2023-02-08T20:04:21.688Z,0.30
2023-02-08T20:06:53.828Z,0.40
2023-02-08T20:09:21.635Z,0.37
2023-02-08T20:11:56.836Z,0.21
2023-02-08T20:14:25.359Z,0.09
2023-02-08T20:16:52.431Z,0.21
2023-02-08T20:19:19.443Z,0.21
2023-02-08T20:21:46.668Z,0.15
2023-02-08T20:24:14.173Z,0.05
2023-02-08T20:26:43.007Z,0.08
2023-02-08T20:29:11.100Z,0.12
2023-02-08T20:31:41.141Z,-0.85
2023-02-08T20:34:10.238Z,-0.74
2023-02-08T20:36:43.979Z,-0.68
2023-02-08T20:39:14.792Z,-0.41
2023-02-08T20:41:44.532Z,-0.48
2023-02-08T20:44:12.737Z,-1.02
2023-02-08T20:46:43.400Z,-0.60
2023-02-08T20:49:11.983Z,-1.52
2023-02-08T20:51:38.946Z,-0.77
2023-02-08T20:54:06.602Z,-0.88
2023-02-08T20:56:36.978Z,-1.07
2023-02-08T20:59:09.321Z,-0.89
2023-02-08T21:01:37.043Z,-0.83
2023-02-08T21:04:05.568Z,-1.08
2023-02-08T21:06:35.271Z,-0.83
2023-02-08T21:09:11.414Z,-1.29
2023-02-08T21:11:39.677Z,-1.25
2023-02-08T21:14:08.228Z,-1.11
2023-02-08T21:16:35.200Z,-1.21
2023-02-08T21:19:02.499Z,-1.09
2023-02-08T21:21:29.542Z,-0.99
2023-02-08T21:23:58.049Z,-1.03
2023-02-08T21:26:26.161Z,-0.86
2023-02-08T21:28:54.629Z,-0.85
2023-02-08T21:31:23.988Z,-0.77
2023-02-08T21:33:51.579Z,-0.83
2023-02-08T21:36:24.849Z,-0.89
2023-02-08T21:38:52.903Z,-0.92
2023-02-08T21:41:26.036Z,-1.02
2023-02-08T21:43:58.928Z,-0.85
2023-02-08T21:46:27.998Z,-0.84
2023-02-08T21:49:15.177Z,-0.88
2023-02-08T21:52:00.727Z,-0.84
2023-02-08T21:54:29.995Z,-1.01
2023-02-08T21:56:59.353Z,-0.97
2023-02-08T21:59:27.211Z,-1.00
2023-02-08T22:01:54.194Z,-0.97
2023-02-08T22:04:21.457Z,-1.05
2023-02-08T22:06:49.176Z,-1.42
2023-02-08T22:09:21.080Z,-1.89
2023-02-08T22:11:48.878Z,-1.45
2023-02-08T22:14:16.348Z,-1.37
2023-02-08T22:16:43.402Z,-1.27
2023-02-08T22:19:11.395Z,-1.29
2023-02-08T22:21:38.317Z,-1.37
2023-02-08T22:24:05.363Z,-1.24
2023-02-08T22:26:32.248Z,-1.43
2023-02-08T22:28:59.248Z,-1.33
2023-02-08T22:31:26.266Z,-1.29
2023-02-08T22:33:53.821Z,-1.12
2023-02-08T22:36:21.433Z,-1.43
2023-02-08T22:38:48.418Z,-1.38
2023-02-08T22:41:17.322Z,-1.39
2023-02-08T22:43:45.349Z,-1.30
2023-02-08T22:46:13.162Z,-1.38
2023-02-08T22:48:40.903Z,-1.25
2023-02-08T22:51:15.188Z,-1.33
2023-02-08T22:53:42.201Z,-1.30
2023-02-08T22:56:09.780Z,-1.47
2023-02-08T22:58:36.814Z,-1.34
2023-02-08T23:01:03.764Z,-1.37
2023-02-08T23:03:30.731Z,-1.48
2023-02-08T23:05:57.619Z,-1.32
2023-02-08T23:08:24.486Z,-1.28
2023-02-08T23:10:58.851Z,-1.74
2023-02-08T23:13:26.179Z,-1.81
2023-02-08T23:15:53.063Z,-1.68
2023-02-08T23:18:20.188Z,-1.69
2023-02-08T23:20:47.327Z,-1.74
2023-02-08T23:23:14.834Z,-1.72
2023-02-08T23:25:42.541Z,-1.70
2023-02-08T23:28:11.824Z,-1.69
2023-02-08T23:30:40.908Z,-1.56
2023-02-08T23:33:08.252Z,-2.02
2023-02-08T23:35:35.358Z,-2.07
2023-02-08T23:38:02.346Z,-2.16
2023-02-08T23:40:29.277Z,-1.94
2023-02-08T23:42:56.151Z,-1.98
2023-02-08T23:45:23.090Z,-2.07
2023-02-08T23:47:50.222Z,-2.01
2023-02-08T23:50:17.160Z,-2.00
2023-02-08T23:52:44.140Z,-1.92
2023-02-08T23:55:11.126Z,-2.14
2023-02-08T23:57:38.660Z,-2.01
